Time;durP1;ratioP1;P1;durP2;ratioP2;P2;SDS_P1;SDS_P2;PMS_P1;PMS_P2;Temp;Humidity;BMP_temperature;BMP_pressure;BME280_temperature;BME280_humidity;BME280_pressure;Samples;Min_cycle;Max_cycle;Signal;HPM_P1;HPM_P2
2023/01/22 00:01:24;;;;;;;10.32;7.57;;;1.00;1.00;;;;;;5074578;28;20201;-74
2023/01/22 00:03:53;;;;;;;11.95;8.63;;;1.10;1.00;;;;;;5063264;28;20223;-74
2023/01/22 00:06:22;;;;;;;11.35;7.80;;;1.10;1.00;;;;;;5069064;28;20199;-73
2023/01/22 00:08:50;;;;;;;10.73;7.80;;;1.10;1.00;;;;;;5074460;28;20204;-75
2023/01/22 00:11:19;;;;;;;7.90;7.10;;;1.10;1.00;;;;;;5075868;28;20202;-76
2023/01/22 00:13:48;;;;;;;11.15;7.00;;;1.20;99.90;;;;;;5070750;28;20287;-72
2023/01/22 00:16:19;;;;;;;9.20;7.38;;;1.10;99.90;;;;;;5069422;28;20208;-73
2023/01/22 00:18:47;;;;;;;10.60;8.02;;;1.20;99.90;;;;;;5070776;28;20878;-75
2023/01/22 00:21:15;;;;;;;9.55;7.15;;;1.10;99.90;;;;;;5068725;28;20220;-75
2023/01/22 00:23:43;;;;;;;10.52;8.30;;;1.10;99.90;;;;;;5071191;28;20672;-74
2023/01/22 00:26:14;;;;;;;8.50;6.80;;;1.10;99.90;;;;;;5071549;28;20619;-76
2023/01/22 00:28:43;;;;;;;9.10;6.57;;;1.00;1.00;;;;;;5071513;28;20675;-74
2023/01/22 00:31:13;;;;;;;9.80;7.10;;;1.10;99.90;;;;;;5072112;28;20581;-74
2023/01/22 00:33:43;;;;;;;10.07;6.95;;;1.00;99.90;;;;;;5071361;28;20664;-74
2023/01/22 00:36:14;;;;;;;11.23;6.35;;;1.10;99.90;;;;;;5073401;28;20652;-74
2023/01/22 00:38:42;;;;;;;9.88;7.90;;;1.10;1.00;;;;;;5070733;28;20231;-73
2023/01/22 00:41:11;;;;;;;11.00;7.05;;;1.10;1.00;;;;;;5070114;28;20670;-74
2023/01/22 00:43:40;;;;;;;8.68;6.75;;;1.10;99.90;;;;;;5070313;28;20664;-75
2023/01/22 00:46:09;;;;;;;9.50;6.47;;;1.20;99.90;;;;;;5068684;28;20610;-72
2023/01/22 00:48:38;;;;;;;10.82;7.47;;;1.10;99.90;;;;;;5074947;28;20215;-73
2023/01/22 00:51:08;;;;;;;8.77;6.80;;;1.00;99.90;;;;;;5071835;28;20225;-75
2023/01/22 00:53:37;;;;;;;9.20;6.10;;;1.00;1.00;;;;;;5070790;28;20224;-75
2023/01/22 00:56:06;;;;;;;7.82;6.22;;;1.00;99.90;;;;;;5074645;28;20196;-73
2023/01/22 00:58:34;;;;;;;9.27;6.85;;;1.00;1.00;;;;;;5073042;28;20874;-74
2023/01/22 01:01:03;;;;;;;7.90;6.38;;;1.10;99.90;;;;;;5070767;28;20200;-75
2023/01/22 01:03:32;;;;;;;9.45;6.80;;;1.00;99.90;;;;;;5067494;28;20222;-74
2023/01/22 01:06:02;;;;;;;6.78;5.95;;;1.10;99.90;;;;;;5069853;28;20196;-75
2023/01/22 01:08:34;;;;;;;11.25;6.72;;;1.00;99.90;;;;;;5073650;28;20205;-76
2023/01/22 01:11:05;;;;;;;8.15;6.57;;;1.00;1.00;;;;;;5075237;28;20213;-75
2023/01/22 01:13:37;;;;;;;7.80;6.10;;;1.10;1.00;;;;;;5070562;28;20247;-75
2023/01/22 01:16:08;;;;;;;7.35;6.43;;;1.10;99.90;;;;;;5072523;28;20207;-74
2023/01/22 01:18:36;;;;;;;9.63;6.65;;;1.20;99.90;;;;;;5069048;28;20298;-74
2023/01/22 01:21:06;;;;;;;11.20;7.40;;;1.20;1.00;;;;;;5071184;28;20247;-74
2023/01/22 01:23:36;;;;;;;9.63;6.50;;;1.10;88.30;;;;;;5070875;28;20223;-76
2023/01/22 01:26:09;;;;;;;10.35;7.03;;;1.00;99.90;;;;;;5070173;28;20195;-75
2023/01/22 01:28:38;;;;;;;6.63;5.68;;;1.00;1.00;;;;;;5075895;28;20199;-75
2023/01/22 01:31:08;;;;;;;8.32;6.95;;;1.10;99.90;;;;;;5075619;28;20570;-75
2023/01/22 01:33:36;;;;;;;7.78;6.18;;;1.10;99.90;;;;;;5075763;28;20230;-75
2023/01/22 01:36:07;;;;;;;7.72;6.18;;;1.10;75.00;;;;;;5070073;28;20205;-74
2023/01/22 01:38:36;;;;;;;7.25;6.10;;;1.00;1.00;;;;;;5077820;28;20781;-75
2023/01/22 01:41:05;;;;;;;7.90;6.50;;;1.10;99.90;;;;;;5071866;28;20748;-74
2023/01/22 01:43:34;;;;;;;7.63;5.40;;;1.10;99.90;;;;;;5057444;28;20267;-74
2023/01/22 01:46:04;;;;;;;9.88;7.22;;;1.10;1.00;;;;;;5073386;28;20213;-76
2023/01/22 01:48:37;;;;;;;7.20;5.97;;;1.10;1.00;;;;;;5073491;28;20283;-74
2023/01/22 01:51:09;;;;;;;9.40;6.97;;;1.00;1.00;;;;;;5071705;28;20197;-74
2023/01/22 01:53:40;;;;;;;8.93;6.75;;;1.10;1.00;;;;;;5075359;28;20226;-77
2023/01/22 01:56:12;;;;;;;7.53;6.75;;;1.10;99.90;;;;;;5077331;28;20205;-75
2023/01/22 01:58:43;;;;;;;7.68;6.30;;;1.20;1.00;;;;;;5075618;28;20206;-72
2023/01/22 02:01:15;;;;;;;7.00;6.30;;;1.10;99.90;;;;;;5074760;28;20198;-73
2023/01/22 02:03:44;;;;;;;9.02;6.72;;;1.10;99.90;;;;;;5071166;28;20249;-75
2023/01/22 02:06:14;;;;;;;6.95;6.25;;;1.10;1.00;;;;;;5073568;28;20563;-76
2023/01/22 02:08:46;;;;;;;8.30;6.90;;;1.10;70.00;;;;;;5076941;28;20242;-74
2023/01/22 02:11:15;;;;;;;7.82;6.50;;;1.10;1.00;;;;;;5077217;28;20204;-74
2023/01/22 02:13:48;;;;;;;7.10;6.07;;;1.10;99.90;;;;;;5076631;28;20220;-75
2023/01/22 02:16:18;;;;;;;9.02;7.07;;;1.20;99.90;;;;;;5073673;28;20198;-75
2023/01/22 02:18:46;;;;;;;8.10;6.80;;;1.10;99.90;;;;;;5073264;28;20723;-76
2023/01/22 02:21:37;;;;;;;10.10;7.60;;;1.10;99.90;;;;;;5074437;28;20224;-74
2023/01/22 02:24:08;;;;;;;8.70;6.75;;;1.10;99.90;;;;;;5072524;28;20216;-74
2023/01/22 02:26:37;;;;;;;7.72;6.50;;;1.10;99.90;;;;;;5073256;28;20196;-75
2023/01/22 02:29:07;;;;;;;7.38;6.57;;;1.10;1.00;;;;;;5074442;28;20196;-74
2023/01/22 02:31:36;;;;;;;9.13;7.10;;;1.10;99.90;;;;;;5069664;28;20257;-75
2023/01/22 02:34:04;;;;;;;11.27;7.90;;;1.10;1.00;;;;;;5074288;28;20189;-74
2023/01/22 02:36:35;;;;;;;9.48;7.70;;;1.20;99.90;;;;;;5078210;28;20577;-77
2023/01/22 02:39:04;;;;;;;8.52;7.13;;;1.20;99.90;;;;;;5073985;28;20297;-77
2023/01/22 02:41:32;;;;;;;7.20;6.22;;;1.20;99.90;;;;;;5074497;28;20197;-75
2023/01/22 02:44:00;;;;;;;8.57;7.38;;;1.20;99.90;;;;;;5068292;28;20233;-74
2023/01/22 02:46:29;;;;;;;7.13;6.47;;;1.30;99.90;;;;;;5065985;28;20212;-75
2023/01/22 02:48:57;;;;;;;8.05;6.50;;;1.20;99.90;;;;;;5071681;28;20216;-75
2023/01/22 02:51:25;;;;;;;8.77;7.38;;;1.20;1.00;;;;;;5072171;28;20193;-74
2023/01/22 02:53:55;;;;;;;8.63;7.63;;;1.30;99.90;;;;;;5070838;28;20200;-76
2023/01/22 02:56:23;;;;;;;8.82;7.03;;;1.20;99.90;;;;;;5072331;28;20194;-73
2023/01/22 02:58:51;;;;;;;10.05;7.80;;;1.20;99.90;;;;;;5073022;28;20204;-75
2023/01/22 03:01:21;;;;;;;9.63;7.53;;;1.10;95.00;;;;;;5056770;28;20196;-76
2023/01/22 03:03:54;;;;;;;9.00;7.07;;;1.10;1.00;;;;;;5071360;28;20209;-76
2023/01/22 03:06:24;;;;;;;8.10;6.65;;;1.10;1.00;;;;;;5073734;28;20212;-75
2023/01/22 03:08:56;;;;;;;11.45;8.13;;;1.20;46.30;;;;;;5058683;28;20219;-75
2023/01/22 03:11:25;;;;;;;9.32;6.60;;;1.20;88.20;;;;;;5077813;28;20276;-75
2023/01/22 03:22:14;;;;;;;9.00;7.35;;;1.20;25.30;;;;;;5075506;28;20216;-75
2023/01/22 03:24:49;;;;;;;7.88;7.07;;;1.20;1.00;;;;;;5072733;28;20203;-76
2023/01/22 03:27:17;;;;;;;9.50;7.15;;;1.20;99.90;;;;;;5077593;28;20199;-76
2023/01/22 03:29:45;;;;;;;9.50;6.75;;;1.20;99.90;;;;;;5077807;28;20205;-73
2023/01/22 03:32:14;;;;;;;7.85;6.70;;;1.20;72.00;;;;;;5070934;28;20213;-74
2023/01/22 03:34:42;;;;;;;9.10;7.82;;;1.10;99.90;;;;;;5074104;28;20203;-74
2023/01/22 03:37:11;;;;;;;8.50;7.50;;;1.10;1.00;;;;;;5073779;28;20209;-77
2023/01/22 03:39:40;;;;;;;8.98;7.40;;;1.10;99.90;;;;;;5071903;28;20681;-76
2023/01/22 03:42:09;;;;;;;10.77;7.88;;;1.10;99.90;;;;;;5069864;28;20286;-75
2023/01/22 03:44:37;;;;;;;8.73;7.00;;;1.10;99.90;;;;;;5070402;28;20196;-77
2023/01/22 03:47:06;;;;;;;10.93;9.02;;;1.10;99.90;;;;;;5072141;28;20287;-75
2023/01/22 03:49:34;;;;;;;9.45;7.32;;;1.10;1.00;;;;;;5072087;28;20209;-76
2023/01/22 03:52:02;;;;;;;9.90;7.65;;;1.10;1.00;;;;;;5071594;28;20216;-75
2023/01/22 03:54:30;;;;;;;9.45;8.13;;;1.10;99.90;;;;;;5070124;28;20212;-75
2023/01/22 03:56:58;;;;;;;8.63;7.63;;;1.10;99.90;;;;;;5072097;28;20293;-75
2023/01/22 03:59:27;;;;;;;9.65;6.82;;;1.10;1.00;;;;;;5072644;28;20904;-73
2023/01/22 04:01:58;;;;;;;10.77;8.50;;;1.10;1.00;;;;;;5071115;28;20431;-75
2023/01/22 04:04:26;;;;;;;9.27;8.38;;;1.20;99.90;;;;;;5069201;28;20213;-76
2023/01/22 04:06:54;;;;;;;10.45;8.48;;;1.20;1.00;;;;;;5073372;28;20222;-75
2023/01/22 04:09:22;;;;;;;8.93;7.60;;;1.20;99.90;;;;;;5074177;28;20282;-74
2023/01/22 04:11:50;;;;;;;11.05;8.00;;;1.30;99.90;;;;;;5073419;28;20226;-75
2023/01/22 04:14:18;;;;;;;8.50;7.60;;;1.20;99.90;;;;;;5073650;28;20254;-74
2023/01/22 04:16:49;;;;;;;12.30;8.30;;;1.30;99.90;;;;;;5071253;28;20288;-76
2023/01/22 04:19:17;;;;;;;9.75;8.20;;;1.30;99.90;;;;;;5071947;28;20213;-72
2023/01/22 04:21:46;;;;;;;10.75;7.90;;;1.30;99.90;;;;;;5072756;28;20213;-75
2023/01/22 04:24:14;;;;;;;9.40;8.35;;;1.30;99.90;;;;;;5069328;28;21106;-76
2023/01/22 04:26:45;;;;;;;12.55;8.68;;;1.20;99.90;;;;;;5072143;28;20301;-75
2023/01/22 04:29:13;;;;;;;9.52;7.60;;;1.20;99.90;;;;;;5073109;28;20710;-75
2023/01/22 04:31:42;;;;;;;10.15;7.95;;;1.20;1.00;;;;;;5071109;28;20248;-75
2023/01/22 04:34:11;;;;;;;10.82;8.20;;;1.10;99.90;;;;;;5071675;28;20270;-75
2023/01/22 04:36:40;;;;;;;10.30;8.50;;;1.20;1.00;;;;;;5075594;28;20283;-76
2023/01/22 04:39:08;;;;;;;9.98;8.85;;;1.20;99.90;;;;;;5071645;28;20201;-74
2023/01/22 04:41:36;;;;;;;10.55;7.93;;;1.10;99.90;;;;;;5073050;28;20263;-75
2023/01/22 04:44:04;;;;;;;11.30;9.18;;;1.20;99.90;;;;;;5067180;28;20682;-76
2023/01/22 04:46:32;;;;;;;11.40;7.93;;;1.20;99.90;;;;;;5052845;28;20882;-75
2023/01/22 04:49:00;;;;;;;11.90;9.77;;;1.10;99.90;;;;;;5074813;28;20684;-75
2023/01/22 04:51:30;;;;;;;12.10;9.05;;;1.20;1.00;;;;;;5072911;28;20249;-77
2023/01/22 04:53:58;;;;;;;11.35;9.15;;;1.30;99.90;;;;;;5068947;28;20201;-77
2023/01/22 04:56:26;;;;;;;10.50;9.00;;;1.20;1.00;;;;;;5075415;28;20257;-76
2023/01/22 04:58:54;;;;;;;11.55;8.65;;;1.20;1.00;;;;;;5058810;28;20639;-76
2023/01/22 05:01:22;;;;;;;10.48;9.25;;;1.20;1.00;;;;;;5073032;28;20206;-77
2023/01/22 05:03:50;;;;;;;11.55;8.68;;;1.20;1.00;;;;;;5075053;28;20261;-75
2023/01/22 05:06:19;;;;;;;13.48;9.48;;;1.20;99.90;;;;;;5062676;28;20700;-75
2023/01/22 05:08:48;;;;;;;13.38;9.35;;;1.10;99.90;;;;;;5079851;28;20202;-76
2023/01/22 05:11:16;;;;;;;12.00;9.65;;;1.20;1.00;;;;;;5081230;28;20291;-74
2023/01/22 05:13:44;;;;;;;12.00;8.65;;;1.20;1.00;;;;;;5076246;28;20251;-76
2023/01/22 05:16:12;;;;;;;14.45;9.77;;;1.30;99.90;;;;;;5082109;28;20258;-75
2023/01/22 05:18:40;;;;;;;14.93;8.65;;;1.20;1.00;;;;;;5079714;28;20205;-74
2023/01/22 05:21:08;;;;;;;14.43;9.85;;;1.20;1.00;;;;;;5077347;28;20288;-74
2023/01/22 05:23:37;;;;;;;11.35;9.35;;;1.20;99.90;;;;;;5080166;28;20224;-74
2023/01/22 05:26:06;;;;;;;10.25;8.45;;;1.20;99.90;;;;;;5077959;28;20208;-74
2023/01/22 05:28:34;;;;;;;13.85;8.95;;;1.10;1.00;;;;;;5080732;28;20201;-74
2023/01/22 05:31:02;;;;;;;14.52;9.50;;;1.20;27.60;;;;;;5075852;28;20201;-74
2023/01/22 05:33:31;;;;;;;17.17;11.27;;;1.20;1.00;;;;;;5076679;28;20324;-74
2023/01/22 05:36:02;;;;;;;13.38;9.43;;;1.20;1.00;;;;;;5075834;28;20220;-74
2023/01/22 05:38:31;;;;;;;15.07;9.80;;;1.20;1.00;;;;;;5080352;28;20265;-73
2023/01/22 05:40:59;;;;;;;11.07;9.85;;;1.20;99.90;;;;;;5077434;28;20191;-74
2023/01/22 05:43:29;;;;;;;14.13;9.35;;;1.20;1.00;;;;;;5060827;28;20216;-74
2023/01/22 05:46:00;;;;;;;13.95;10.07;;;1.20;1.00;;;;;;5077343;28;20191;-74
2023/01/22 05:48:28;;;;;;;13.95;9.77;;;1.10;1.00;;;;;;5080567;28;20211;-74
2023/01/22 05:50:56;;;;;;;15.32;10.13;;;1.20;99.90;;;;;;5078688;28;20200;-74
2023/01/22 05:53:25;;;;;;;14.15;10.10;;;1.20;1.00;;;;;;5081064;28;21116;-75
2023/01/22 05:55:53;;;;;;;13.40;9.40;;;1.30;1.00;;;;;;5078625;28;20812;-75
2023/01/22 05:58:21;;;;;;;13.32;9.05;;;1.20;99.90;;;;;;5079184;28;20202;-75
2023/01/22 06:00:52;;;;;;;15.13;9.82;;;1.20;99.90;;;;;;5073383;28;20722;-76
2023/01/22 06:03:20;;;;;;;11.15;8.88;;;1.20;1.00;;;;;;5076422;28;20220;-74
2023/01/22 06:05:57;;;;;;;12.80;9.75;;;1.20;1.00;;;;;;5080510;28;20200;-74
2023/01/22 06:08:26;;;;;;;11.80;9.27;;;1.20;1.00;;;;;;5073364;28;20866;-74
2023/01/22 06:11:00;;;;;;;12.82;9.70;;;1.20;1.00;;;;;;5075941;28;20287;-74
2023/01/22 06:13:29;;;;;;;13.65;9.55;;;1.20;99.90;;;;;;5073727;28;20912;-75
2023/01/22 06:15:59;;;;;;;15.60;11.57;;;1.20;99.90;;;;;;5072640;28;20637;-75
2023/01/22 06:18:27;;;;;;;12.27;9.70;;;1.20;1.00;;;;;;5075922;28;20712;-76
2023/01/22 06:20:59;;;;;;;13.30;8.80;;;1.20;1.00;;;;;;5071370;28;20343;-74
2023/01/22 06:23:28;;;;;;;11.00;8.70;;;1.20;1.70;;;;;;5071942;28;20723;-72
2023/01/22 06:25:58;;;;;;;12.13;9.63;;;1.20;99.90;;;;;;5059511;28;20283;-75
2023/01/22 06:28:27;;;;;;;10.82;8.80;;;1.30;30.70;;;;;;5076768;28;20724;-74
2023/01/22 06:30:57;;;;;;;13.05;10.02;;;1.30;1.00;;;;;;5072805;28;20200;-73
2023/01/22 06:33:26;;;;;;;11.43;8.98;;;1.30;99.90;;;;;;5073913;28;20227;-74
2023/01/22 06:35:55;;;;;;;13.18;10.07;;;1.20;99.90;;;;;;5074605;28;20204;-76
2023/01/22 06:38:24;;;;;;;13.73;9.07;;;1.20;99.90;;;;;;5072269;28;20182;-74
2023/01/22 06:40:52;;;;;;;11.27;8.82;;;1.20;1.00;;;;;;5075505;28;20205;-74
2023/01/22 06:43:20;;;;;;;13.43;9.05;;;1.20;99.90;;;;;;5067355;28;20223;-74
2023/01/22 06:45:48;;;;;;;13.25;9.05;;;1.30;99.90;;;;;;5071705;28;20284;-76
2023/01/22 06:48:16;;;;;;;9.75;8.40;;;1.30;99.90;;;;;;5072420;28;20321;-75
2023/01/22 06:50:46;;;;;;;10.68;9.25;;;1.20;1.00;;;;;;5074024;28;20232;-77
2023/01/22 06:53:14;;;;;;;11.68;8.82;;;1.20;99.90;;;;;;5068265;28;20863;-74
2023/01/22 06:55:42;;;;;;;12.15;9.27;;;1.30;99.90;;;;;;5073506;28;20200;-75
2023/01/22 06:58:10;;;;;;;11.98;9.05;;;1.40;99.90;;;;;;5069050;28;20765;-77
2023/01/22 07:00:38;;;;;;;12.38;8.65;;;1.30;1.00;;;;;;5074082;28;20281;-76
2023/01/22 07:03:08;;;;;;;12.20;8.82;;;1.30;1.00;;;;;;5071995;28;20221;-76
2023/01/22 07:05:36;;;;;;;11.70;8.85;;;1.30;1.00;;;;;;5055285;28;20808;-76
2023/01/22 07:08:05;;;;;;;12.32;9.02;;;1.20;99.90;;;;;;5072812;28;20308;-77
2023/01/22 07:10:33;;;;;;;12.50;8.93;;;1.30;1.00;;;;;;5077549;28;20190;-74
2023/01/22 07:13:03;;;;;;;12.60;10.15;;;1.20;99.90;;;;;;5074112;28;20215;-76
2023/01/22 07:15:31;;;;;;;12.02;8.13;;;1.30;99.90;;;;;;5069286;28;20193;-74
2023/01/22 07:17:59;;;;;;;12.15;9.10;;;1.30;99.90;;;;;;5075062;28;20191;-75
2023/01/22 07:20:27;;;;;;;11.38;8.50;;;1.30;86.30;;;;;;5075147;28;20371;-77
2023/01/22 07:22:58;;;;;;;11.63;9.40;;;1.30;29.30;;;;;;5072660;28;20235;-77
2023/01/22 07:25:29;;;;;;;9.63;8.32;;;1.30;99.90;;;;;;5074659;28;20888;-76
2023/01/22 07:27:59;;;;;;;10.85;9.65;;;1.40;1.00;;;;;;5071027;28;20210;-77
2023/01/22 07:30:28;;;;;;;9.50;8.68;;;1.30;16.70;;;;;;5072335;28;20200;-77
2023/01/22 07:32:59;;;;;;;11.77;9.15;;;1.40;99.90;;;;;;5073007;28;20232;-79
2023/01/22 07:35:28;;;;;;;16.20;8.80;;;1.30;99.90;;;;;;5061253;27;20618;-77
2023/01/22 07:37:57;;;;;;;15.35;9.50;;;1.30;99.90;;;;;;5095389;28;20195;-76
2023/01/22 07:40:27;;;;;;;12.35;9.70;;;1.30;99.90;;;;;;5099168;28;20195;-77
2023/01/22 07:42:56;;;;;;;12.70;10.02;;;1.30;99.90;;;;;;5085723;28;21032;-78
2023/01/22 07:45:25;;;;;;;13.63;9.25;;;1.30;99.90;;;;;;5086300;28;20341;-78
2023/01/22 07:47:55;;;;;;;12.50;9.50;;;1.40;1.00;;;;;;5069137;28;20830;-75
2023/01/22 07:50:25;;;;;;;9.50;7.80;;;1.40;99.90;;;;;;5066933;28;20208;-75
2023/01/22 07:52:53;;;;;;;8.65;6.60;;;1.40;33.50;;;;;;5074832;27;20227;-75
2023/01/22 07:55:22;;;;;;;10.68;8.05;;;1.50;1.00;;;;;;5087583;28;20295;-76
2023/01/22 07:57:59;;;;;;;11.98;8.02;;;1.50;99.90;;;;;;5088268;28;20711;-75
2023/01/22 08:00:27;;;;;;;10.43;7.75;;;1.50;1.00;;;;;;5087313;28;20203;-75
2023/01/22 08:02:55;;;;;;;10.82;8.65;;;1.40;1.00;;;;;;5084432;28;20226;-75
2023/01/22 08:05:23;;;;;;;10.93;9.35;;;1.50;99.90;;;;;;5088919;28;20519;-75
2023/01/22 08:07:51;;;;;;;11.63;8.95;;;1.30;99.90;;;;;;5088331;27;20305;-76
2023/01/22 08:10:20;;;;;;;10.32;9.20;;;1.20;99.90;;;;;;5093608;27;20528;-75
2023/01/22 08:12:48;;;;;;;12.60;8.50;;;1.30;1.00;;;;;;5093669;28;20575;-75
2023/01/22 08:15:18;;;;;;;9.30;6.93;;;1.40;1.00;;;;;;5093094;28;20664;-77
2023/01/22 08:17:48;;;;;;;10.95;8.30;;;1.30;99.90;;;;;;5092510;28;20200;-76
2023/01/22 08:20:17;;;;;;;10.38;7.90;;;1.40;99.90;;;;;;5094791;28;20675;-76
2023/01/22 08:22:46;;;;;;;10.00;7.95;;;1.50;99.10;;;;;;5092248;28;20271;-74
2023/01/22 08:25:14;;;;;;;18.27;14.05;;;1.50;99.90;;;;;;5092093;28;20697;-76
2023/01/22 08:27:42;;;;;;;19.15;14.20;;;1.60;1.00;;;;;;5092468;28;20223;-76
2023/01/22 08:30:12;;;;;;;20.52;15.27;;;1.50;99.90;;;;;;5093436;28;20251;-76
2023/01/22 08:32:44;;;;;;;10.02;8.10;;;1.40;1.00;;;;;;5093857;28;20212;-76
2023/01/22 08:35:12;;;;;;;12.63;8.98;;;1.50;17.40;;;;;;5091924;28;20189;-77
2023/01/22 08:37:42;;;;;;;12.70;8.82;;;1.50;95.60;;;;;;5089099;28;20208;-75
2023/01/22 08:40:12;;;;;;;13.18;9.70;;;1.60;1.00;;;;;;5093069;28;20217;-77
2023/01/22 08:42:41;;;;;;;11.43;9.35;;;1.50;1.00;;;;;;5094621;28;20224;-75
2023/01/22 08:45:10;;;;;;;12.82;8.90;;;1.60;8.50;;;;;;5089433;28;20252;-77
2023/01/22 08:47:38;;;;;;;17.50;10.65;;;1.60;1.00;;;;;;5082842;28;20203;-74
2023/01/22 08:50:08;;;;;;;12.85;9.02;;;1.60;99.90;;;;;;5073392;28;20303;-76
2023/01/22 08:52:36;;;;;;;13.27;10.18;;;1.60;1.00;;;;;;5088958;28;21094;-77
2023/01/22 08:55:08;;;;;;;12.57;9.52;;;1.70;99.90;;;;;;5079492;28;20212;-75
2023/01/22 08:57:37;;;;;;;14.00;10.25;;;1.70;1.00;;;;;;5086125;28;20204;-76
2023/01/22 09:00:07;;;;;;;17.25;10.20;;;1.70;99.90;;;;;;5074845;28;20191;-75
2023/01/22 09:02:35;;;;;;;13.63;9.32;;;1.70;99.90;;;;;;5089511;28;20224;-76
2023/01/22 09:05:03;;;;;;;11.20;8.43;;;1.80;99.90;;;;;;5093941;28;20201;-77
2023/01/22 09:07:33;;;;;;;12.50;9.60;;;1.90;1.00;;;;;;5095895;28;20197;-76
2023/01/22 09:10:01;;;;;;;13.82;9.95;;;1.80;1.00;;;;;;5094507;28;21011;-77
2023/01/22 09:12:29;;;;;;;16.73;10.60;;;1.90;36.50;;;;;;5093348;28;20215;-76
2023/01/22 09:14:59;;;;;;;17.40;11.10;;;2.00;1.00;;;;;;5089696;28;20238;-76
2023/01/22 09:17:27;;;;;;;16.40;10.48;;;2.00;99.90;;;;;;5094146;28;20228;-75
2023/01/22 09:19:56;;;;;;;17.98;12.55;;;2.00;26.00;;;;;;5093569;28;20194;-76
2023/01/22 09:22:24;;;;;;;15.38;10.93;;;2.00;1.00;;;;;;5090640;28;20228;-77
2023/01/22 09:24:54;;;;;;;11.05;9.68;;;2.00;99.90;;;;;;5089536;28;20205;-78
2023/01/22 09:27:23;;;;;;;13.57;10.23;;;2.10;1.00;;;;;;5093620;28;20211;-77
2023/01/22 09:29:51;;;;;;;13.40;10.23;;;2.10;99.90;;;;;;5092616;28;20225;-77
2023/01/22 09:32:19;;;;;;;17.27;10.32;;;2.10;99.90;;;;;;5096267;28;20267;-76
2023/01/22 09:34:47;;;;;;;14.35;9.95;;;2.10;99.90;;;;;;5089550;28;20203;-75
2023/01/22 09:37:15;;;;;;;15.10;10.18;;;2.20;1.00;;;;;;5092440;28;20205;-74
2023/01/22 09:39:44;;;;;;;14.05;11.50;;;2.10;1.00;;;;;;5090657;28;20209;-76
2023/01/22 09:42:21;;;;;;;13.93;10.18;;;2.10;99.90;;;;;;5094378;28;20228;-76
2023/01/22 09:44:52;;;;;;;13.10;9.40;;;2.20;99.90;;;;;;5090994;28;20682;-76
2023/01/22 09:47:30;;;;;;;12.88;8.50;;;2.20;99.90;;;;;;5080503;28;20204;-76
2023/01/22 09:50:04;;;;;;;12.65;8.98;;;2.20;1.00;;;;;;5078575;28;20251;-78
2023/01/22 09:52:36;;;;;;;11.82;9.13;;;2.30;99.90;;;;;;5064734;28;20452;-77
2023/01/22 09:55:13;;;;;;;10.77;7.80;;;2.20;1.00;;;;;;5071158;28;20749;-76
2023/01/22 09:57:46;;;;;;;14.82;8.15;;;2.30;99.90;;;;;;5087683;28;20230;-78
2023/01/22 10:00:18;;;;;;;9.95;7.57;;;2.40;1.00;;;;;;5090960;27;20231;-76
2023/01/22 10:02:50;;;;;;;10.73;7.60;;;2.40;1.00;;;;;;5085093;27;20219;-76
2023/01/22 10:05:25;;;;;;;7.40;6.63;;;2.40;15.80;;;;;;5095133;28;20197;-76
2023/01/22 10:08:03;;;;;;;8.98;6.93;;;2.30;99.90;;;;;;5096538;27;20195;-77
2023/01/22 10:10:33;;;;;;;9.45;7.70;;;2.40;1.00;;;;;;5094322;28;20693;-76
2023/01/22 10:13:13;;;;;;;8.95;6.68;;;2.50;99.90;;;;;;5091494;28;20240;-75
2023/01/22 10:15:41;;;;;;;8.95;7.20;;;2.50;99.90;;;;;;5091276;28;22410;-77
2023/01/22 10:18:27;;;;;;;10.68;7.28;;;2.50;1.00;;;;;;5083456;28;20206;-75
2023/01/22 10:20:57;;;;;;;8.18;7.07;;;2.60;1.00;;;;;;5098181;28;20199;-76
2023/01/22 10:23:26;;;;;;;8.45;6.70;;;2.60;1.00;;;;;;5095156;28;20241;-75
2023/01/22 10:25:59;;;;;;;10.48;7.95;;;2.70;99.90;;;;;;5095213;28;20201;-76
2023/01/22 10:28:29;;;;;;;7.50;6.63;;;2.60;29.70;;;;;;5096213;28;20252;-76
2023/01/22 10:30:57;;;;;;;8.38;6.53;;;2.60;99.90;;;;;;5094736;28;20205;-76
2023/01/22 10:33:27;;;;;;;9.82;6.97;;;2.70;99.90;;;;;;5083195;27;20230;-75
2023/01/22 10:35:57;;;;;;;9.18;7.93;;;2.80;46.90;;;;;;5095906;28;20195;-75
2023/01/22 10:38:28;;;;;;;9.52;7.25;;;2.70;54.40;;;;;;5096425;28;20289;-74
2023/01/22 10:40:59;;;;;;;9.57;7.95;;;2.70;1.00;;;;;;5078090;28;20297;-77
2023/01/22 10:43:34;;;;;;;10.23;7.38;;;2.80;29.20;;;;;;5091724;28;20214;-75
2023/01/22 10:46:12;;;;;;;9.20;8.25;;;2.70;1.00;;;;;;5095352;28;20206;-78
2023/01/22 10:48:41;;;;;;;11.77;7.78;;;2.80;1.00;;;;;;5096663;28;20308;-75
2023/01/22 10:51:15;;;;;;;10.07;7.40;;;2.70;1.00;;;;;;5097519;28;20204;-78
2023/01/22 10:53:48;;;;;;;9.23;7.40;;;2.70;1.00;;;;;;5095105;28;20224;-76
2023/01/22 10:56:27;;;;;;;8.48;7.57;;;2.90;1.00;;;;;;5096553;28;20204;-77
2023/01/22 10:58:58;;;;;;;10.75;7.65;;;2.80;1.80;;;;;;5085711;28;20211;-76
2023/01/22 11:01:34;;;;;;;8.57;6.97;;;2.80;1.00;;;;;;5098028;27;20224;-75
2023/01/22 11:04:12;;;;;;;9.35;6.78;;;2.80;1.00;;;;;;5097361;28;20274;-78
2023/01/22 11:06:45;;;;;;;7.28;6.57;;;2.80;1.00;;;;;;5098939;28;20208;-77
2023/01/22 11:09:18;;;;;;;9.13;7.85;;;2.80;99.90;;;;;;5095555;28;20217;-76
2023/01/22 11:11:51;;;;;;;10.77;7.72;;;2.80;1.00;;;;;;5096878;28;20232;-77
2023/01/22 11:14:26;;;;;;;12.15;8.80;;;2.80;1.00;;;;;;5092902;28;20624;-78
2023/01/22 11:16:58;;;;;;;13.85;9.20;;;2.80;1.00;;;;;;5098286;28;20197;-76
2023/01/22 11:19:34;;;;;;;12.10;8.82;;;2.80;1.00;;;;;;5094500;28;20204;-76
2023/01/22 11:22:13;;;;;;;12.82;8.45;;;2.70;1.00;;;;;;5096359;28;20248;-77
2023/01/22 11:24:46;;;;;;;9.85;6.85;;;2.80;1.00;;;;;;5096648;28;20249;-76
2023/01/22 11:27:40;;;;;;;10.20;7.40;;;2.70;1.00;;;;;;5096428;28;20205;-77
2023/01/22 11:30:41;;;;;;;13.80;8.93;;;2.70;99.90;;;;;;5083383;28;20232;-76
2023/01/22 11:33:30;;;;;;;8.82;7.28;;;2.80;99.90;;;;;;5077261;28;20317;-76
2023/01/22 11:36:01;;;;;;;10.27;7.47;;;2.80;1.00;;;;;;5095958;28;20280;-77
2023/01/22 11:38:38;;;;;;;9.43;6.65;;;2.80;1.00;;;;;;5095619;28;20207;-77
2023/01/22 11:41:22;;;;;;;10.10;6.35;;;2.80;1.00;;;;;;5096669;28;20205;-77
2023/01/22 11:44:01;;;;;;;9.13;6.57;;;3.00;99.90;;;;;;5097292;28;20696;-76
2023/01/22 11:46:49;;;;;;;8.00;6.28;;;2.90;99.90;;;;;;5096408;28;20714;-77
2023/01/22 11:49:33;;;;;;;7.57;6.53;;;3.00;99.90;;;;;;5095700;28;20242;-77
2023/01/22 11:52:13;;;;;;;11.13;7.60;;;3.00;99.90;;;;;;5094381;28;21069;-76
2023/01/22 11:55:04;;;;;;;12.15;7.95;;;3.00;99.90;;;;;;5092189;28;20191;-76
2023/01/22 11:57:36;;;;;;;10.75;7.82;;;3.00;1.00;;;;;;5095853;28;20192;-75
2023/01/22 12:00:34;;;;;;;13.60;8.90;;;3.00;99.90;;;;;;5092745;28;20238;-75
2023/01/22 12:03:45;;;;;;;12.07;7.88;;;3.00;99.90;;;;;;5092928;27;20221;-75
2023/01/22 12:06:25;;;;;;;13.10;7.35;;;2.90;99.90;;;;;;5093986;28;20200;-76
2023/01/22 12:09:05;;;;;;;11.23;7.85;;;2.80;99.90;;;;;;5091769;28;20206;-75
2023/01/22 12:11:48;;;;;;;9.63;7.50;;;2.80;99.90;;;;;;5095793;28;20245;-75
2023/01/22 12:14:40;;;;;;;10.57;7.53;;;2.80;1.00;;;;;;5089356;28;20297;-74
2023/01/22 12:17:25;;;;;;;9.15;6.47;;;2.80;99.90;;;;;;5077876;27;21256;-75
2023/01/22 12:20:24;;;;;;;10.20;7.65;;;2.80;1.00;;;;;;5085327;28;20186;-76
2023/01/22 12:22:59;;;;;;;6.88;6.18;;;2.90;99.90;;;;;;5079181;27;20330;-75
2023/01/22 12:25:36;;;;;;;8.25;6.85;;;2.90;99.90;;;;;;5084082;28;20825;-76
2023/01/22 12:28:15;;;;;;;9.02;6.70;;;2.90;99.90;;;;;;5079266;27;20197;-74
2023/01/22 12:30:50;;;;;;;8.25;6.60;;;2.90;10.90;;;;;;5086935;28;20215;-75
2023/01/22 12:33:23;;;;;;;9.82;7.65;;;2.80;1.00;;;;;;5083687;28;20283;-75
2023/01/22 12:35:59;;;;;;;13.48;9.30;;;2.80;99.90;;;;;;5080803;27;20445;-75
2023/01/22 12:38:40;;;;;;;12.43;9.13;;;2.80;99.90;;;;;;5064053;28;20284;-75
2023/01/22 12:41:21;;;;;;;11.52;9.40;;;2.80;1.00;;;;;;5081735;28;20209;-74
2023/01/22 12:43:54;;;;;;;11.23;8.15;;;2.90;1.00;;;;;;5081874;28;20226;-75
2023/01/22 12:46:31;;;;;;;14.98;10.45;;;2.90;1.00;;;;;;5083982;28;20286;-74
2023/01/22 12:49:06;;;;;;;11.05;9.10;;;2.80;1.00;;;;;;5065351;28;20673;-74
2023/01/22 12:51:40;;;;;;;11.02;9.15;;;2.80;1.00;;;;;;5081807;28;20207;-73
2023/01/22 12:54:21;;;;;;;9.82;7.57;;;2.90;1.00;;;;;;5082541;28;20209;-74
2023/01/22 12:56:52;;;;;;;8.60;7.75;;;2.80;1.00;;;;;;5087043;28;20212;-76
2023/01/22 12:59:43;;;;;;;8.27;7.25;;;2.80;1.00;;;;;;5074791;28;20652;-76
2023/01/22 13:02:40;;;;;;;8.95;7.10;;;2.80;1.00;;;;;;5070924;28;20235;-75
2023/01/22 13:05:35;;;;;;;7.85;6.35;;;2.80;1.00;;;;;;5093085;28;20196;-74
2023/01/22 13:08:19;;;;;;;8.77;6.38;;;2.90;1.00;;;;;;5092268;28;20200;-77
2023/01/22 13:10:55;;;;;;;9.60;7.55;;;2.90;99.90;;;;;;5096223;28;20209;-77
2023/01/22 13:13:28;;;;;;;9.20;6.00;;;3.00;99.90;;;;;;5090467;28;20807;-75
2023/01/22 13:16:02;;;;;;;5.55;5.00;;;2.90;99.90;;;;;;5093694;28;20200;-74
2023/01/22 13:18:36;;;;;;;6.50;5.68;;;2.90;99.90;;;;;;5098545;28;20698;-75
2023/01/22 13:21:08;;;;;;;8.73;6.63;;;2.90;99.90;;;;;;5096127;27;20736;-76
2023/01/22 13:23:42;;;;;;;7.45;5.82;;;2.90;99.90;;;;;;5098132;28;20220;-75
2023/01/22 13:26:17;;;;;;;7.80;6.18;;;2.90;99.90;;;;;;5095294;28;20689;-74